This is the latest recevied weather packets stored in our database for station/object KQ4OSL. If no packets are shown the sender has not sent any weather packets the latest 10 day(s).
| Time | Temp. | Humidity | Pressure | Rain* | Wind** | Luminosity | Snow |
|---|---|---|---|---|---|---|---|
| 1777796798 | 5° C | 95% | 1020.2 hPa | 0 mm | - | 0 W/m² | - |
| 1777796495 | 5° C | 96% | 1020.3 hPa | 0 mm | - | 0 W/m² | - |
| 1777796190 | 5° C | 95% | 1020.1 hPa | 0 mm | - | 0 W/m² | - |
| 1777795887 | 5° C | 95% | 1020.3 hPa | 0 mm | - | 0 W/m² | - |
| 1777795583 | 5° C | 95% | 1020.1 hPa | 0 mm | - | 0 W/m² | - |
| 1777795280 | 5° C | 95% | 1020.1 hPa | 0 mm | - | 0 W/m² | - |
| 1777794977 | 5° C | 94% | 1020 hPa | 0 mm | - | 0 W/m² | - |
| 1777794673 | 5.56° C | 93% | 1019.9 hPa | 0 mm | - | 0 W/m² | - |
| 1777794369 | 5.56° C | 91% | 1019.9 hPa | 0 mm | - | 0 W/m² | - |
| 1777794064 | 6.11° C | 90% | 1019.7 hPa | 0 mm | - | 0 W/m² | - |
| 1777793761 | 6.67° C | 90% | 1019.7 hPa | 0 mm | - | 0 W/m² | - |
| 1777793460 | 6.67° C | 89% | 1019.6 hPa | 0 mm | - | 0 W/m² | - |
| 1777793157 | 6.67° C | 87% | 1019.5 hPa | 0 mm | - | 0 W/m² | - |
| 1777792854 | 7.22° C | 85% | 1019.5 hPa | 0 mm | - | 0 W/m² | - |
| 1777792550 | 7.78° C | 81% | 1019.5 hPa | 0 mm | - | 0 W/m² | - |
| 1777792247 | 8.33° C | 77% | 1019.5 hPa | 0 mm | - | 0 W/m² | - |
| 1777791943 | 8.89° C | 75% | 1019.4 hPa | 0 mm | - | 0 W/m² | - |
| 1777791643 | 8.89° C | 76% | 1019.5 hPa | 0 mm | - | 0 W/m² | - |
| 1777791339 | 8.33° C | 76% | 1019.5 hPa | 0 mm | - | 0 W/m² | - |
| 1777791037 | 7.78° C | 80% | 1019.6 hPa | 0 mm | - | 0 W/m² | - |
| 1777790734 | 7.78° C | 81% | 1019.5 hPa | 0 mm | - | 0 W/m² | - |
| 1777790431 | 7.78° C | 79% | 1019.3 hPa | 0 mm | - | 0 W/m² | - |
| 1777790128 | 7.78° C | 81% | 1019.4 hPa | 0 mm | - | 0 W/m² | - |
| 1777789827 | 7.78° C | 82% | 1019.4 hPa | 0 mm | - | 0 W/m² | - |
| 1777789525 | 7.22° C | 82% | 1019.2 hPa | 0 mm | - | 0 W/m² | - |
* Rain latest hour (hover to see other rain measurements)
** Current wind speed in m/s (hover to see current wind gust speed)